OYCAT EKRK-EKAT
Flight info
| Callsign | OYCAT |
|---|---|
| Flight time | 0h 34m |
| Altitude | 1500 |
| Route | VALBY |
| Aircraft | BN2/L-V/N |
Departure
| Time | 2026-05-09 10:20 |
|---|---|
| Airport | Copenhagen Roskilde Airport (EKRK) |
Arrival
| Time | 2026-05-09 10:54 |
|---|---|
| Airport | Anholt Airfield (EKAT) |
| Time | Latitude | Longitude | Altitude | Speed | Heading |
|---|---|---|---|---|---|
| 2026-05-09 10:07 | 55.59022 | 12.12798 | 139 ft | 0 kts | 117° |
| 2026-05-09 10:14 | 55.59018 | 12.12807 | 139 ft | 4 kts | 132° |
| 2026-05-09 10:14 | 55.58974 | 12.12877 | 139 ft | 12 kts | 136° |
| 2026-05-09 10:15 | 55.58926 | 12.12992 | 139 ft | 11 kts | 116° |
| 2026-05-09 10:15 | 55.58895 | 12.13107 | 139 ft | 9 kts | 108° |
| 2026-05-09 10:15 | 55.58869 | 12.13126 | 139 ft | 8 kts | 208° |
| 2026-05-09 10:15 | 55.58786 | 12.13054 | 139 ft | 16 kts | 206° |
| 2026-05-09 10:16 | 55.58694 | 12.12960 | 139 ft | 14 kts | 210° |
| 2026-05-09 10:16 | 55.58615 | 12.12876 | 139 ft | 14 kts | 210° |
| 2026-05-09 10:16 | 55.58516 | 12.12772 | 139 ft | 19 kts | 211° |
| 2026-05-09 10:16 | 55.58397 | 12.12646 | 139 ft | 20 kts | 211° |
| 2026-05-09 10:17 | 55.58287 | 12.12529 | 139 ft | 17 kts | 211° |
| 2026-05-09 10:17 | 55.58197 | 12.12434 | 139 ft | 14 kts | 210° |
| 2026-05-09 10:17 | 55.58121 | 12.12353 | 139 ft | 14 kts | 211° |
| 2026-05-09 10:17 | 55.58022 | 12.12251 | 139 ft | 15 kts | 204° |
| 2026-05-09 10:18 | 55.57943 | 12.12275 | 139 ft | 7 kts | 167° |
| 2026-05-09 10:18 | 55.57936 | 12.12278 | 139 ft | 0 kts | 167° |
| 2026-05-09 10:19 | 55.57934 | 12.12279 | 139 ft | 5 kts | 167° |
| 2026-05-09 10:19 | 55.57864 | 12.12322 | 138 ft | 11 kts | 131° |
| 2026-05-09 10:19 | 55.57878 | 12.12425 | 137 ft | 19 kts | 31° |
| 2026-05-09 10:19 | 55.58220 | 12.12786 | 171 ft | 82 kts | 32° |
| 2026-05-09 10:20 | 55.58708 | 12.13238 | 518 ft | 78 kts | 34° |
| 2026-05-09 10:20 | 55.59190 | 12.13694 | 863 ft | 75 kts | 35° |
| 2026-05-09 10:20 | 55.59706 | 12.13991 | 1005 ft | 82 kts | 7° |
| 2026-05-09 10:20 | 55.60278 | 12.13765 | 1137 ft | 86 kts | 345° |
| 2026-05-09 10:21 | 55.60849 | 12.13320 | 1303 ft | 92 kts | 338° |
| 2026-05-09 10:21 | 55.61484 | 12.12774 | 1325 ft | 107 kts | 340° |
| 2026-05-09 10:21 | 55.62217 | 12.12429 | 1387 ft | 112 kts | 358° |
| 2026-05-09 10:21 | 55.63014 | 12.12560 | 1350 ft | 117 kts | 13° |
| 2026-05-09 10:22 | 55.63800 | 12.12862 | 1471 ft | 114 kts | 21° |
| 2026-05-09 10:22 | 55.64550 | 12.13344 | 1439 ft | 118 kts | 20° |
| 2026-05-09 10:22 | 55.65374 | 12.13566 | 1389 ft | 124 kts | 8° |
| 2026-05-09 10:22 | 55.66261 | 12.13638 | 1379 ft | 130 kts | 5° |
| 2026-05-09 10:23 | 55.67182 | 12.13658 | 1333 ft | 130 kts | 4° |
| 2026-05-09 10:23 | 55.68066 | 12.13653 | 1380 ft | 129 kts | 3° |
| 2026-05-09 10:23 | 55.68966 | 12.13635 | 1372 ft | 132 kts | 3° |
| 2026-05-09 10:23 | 55.69892 | 12.13545 | 1371 ft | 134 kts | 358° |
| 2026-05-09 10:24 | 55.70817 | 12.13384 | 1386 ft | 134 kts | 356° |
| 2026-05-09 10:24 | 55.71745 | 12.13163 | 1389 ft | 136 kts | 353° |
| 2026-05-09 10:24 | 55.72674 | 12.12838 | 1373 ft | 136 kts | 351° |
| 2026-05-09 10:24 | 55.73604 | 12.12469 | 1370 ft | 137 kts | 349° |
| 2026-05-09 10:25 | 55.74531 | 12.12097 | 1377 ft | 137 kts | 350° |
| 2026-05-09 10:25 | 55.75461 | 12.11693 | 1374 ft | 138 kts | 348° |
| 2026-05-09 10:25 | 55.76390 | 12.11254 | 1394 ft | 139 kts | 347° |
| 2026-05-09 10:25 | 55.77339 | 12.10838 | 1379 ft | 139 kts | 356° |
| 2026-05-09 10:26 | 55.78275 | 12.10989 | 1394 ft | 137 kts | 358° |
| 2026-05-09 10:26 | 55.79212 | 12.10592 | 1405 ft | 140 kts | 348° |
| 2026-05-09 10:26 | 55.80153 | 12.10136 | 1373 ft | 139 kts | 346° |
| 2026-05-09 10:26 | 55.81082 | 12.09644 | 1379 ft | 140 kts | 346° |
| 2026-05-09 10:27 | 55.82013 | 12.09130 | 1381 ft | 140 kts | 345° |
| 2026-05-09 10:27 | 55.82944 | 12.08611 | 1381 ft | 141 kts | 345° |
| 2026-05-09 10:27 | 55.83864 | 12.08060 | 1359 ft | 141 kts | 342° |
| 2026-05-09 10:27 | 55.84775 | 12.07468 | 1359 ft | 139 kts | 341° |
| 2026-05-09 10:28 | 55.85678 | 12.06857 | 1359 ft | 139 kts | 341° |
| 2026-05-09 10:28 | 55.86578 | 12.06232 | 1371 ft | 139 kts | 341° |
| 2026-05-09 10:28 | 55.87477 | 12.05603 | 1347 ft | 138 kts | 341° |
| 2026-05-09 10:28 | 55.88358 | 12.04974 | 1345 ft | 135 kts | 341° |
| 2026-05-09 10:29 | 55.89227 | 12.04344 | 1363 ft | 134 kts | 340° |
| 2026-05-09 10:29 | 55.90099 | 12.03730 | 1362 ft | 134 kts | 340° |
| 2026-05-09 10:29 | 55.90965 | 12.03118 | 1357 ft | 133 kts | 342° |
| 2026-05-09 10:29 | 55.91827 | 12.02535 | 1367 ft | 132 kts | 342° |
| 2026-05-09 10:30 | 55.92696 | 12.01974 | 1376 ft | 133 kts | 342° |
| 2026-05-09 10:30 | 55.93576 | 12.01425 | 1365 ft | 133 kts | 343° |
| 2026-05-09 10:30 | 55.94447 | 12.00882 | 1365 ft | 132 kts | 344° |
| 2026-05-09 10:30 | 55.95314 | 12.00338 | 1378 ft | 132 kts | 344° |
| 2026-05-09 10:31 | 55.96191 | 11.99811 | 1390 ft | 133 kts | 345° |
| 2026-05-09 10:31 | 55.97068 | 11.99268 | 1422 ft | 138 kts | 344° |
| 2026-05-09 10:31 | 55.97981 | 11.98695 | 1415 ft | 139 kts | 345° |
| 2026-05-09 10:31 | 55.98900 | 11.98132 | 1421 ft | 140 kts | 345° |
| 2026-05-09 10:32 | 55.99830 | 11.97610 | 1422 ft | 140 kts | 346° |
| 2026-05-09 10:32 | 56.00767 | 11.97109 | 1427 ft | 141 kts | 346° |
| 2026-05-09 10:32 | 56.01720 | 11.96621 | 1443 ft | 143 kts | 347° |
| 2026-05-09 10:32 | 56.02662 | 11.96140 | 1403 ft | 139 kts | 346° |
| 2026-05-09 10:33 | 56.03585 | 11.95676 | 1388 ft | 136 kts | 346° |
| 2026-05-09 10:33 | 56.04488 | 11.95195 | 1383 ft | 135 kts | 345° |
| 2026-05-09 10:33 | 56.05380 | 11.94699 | 1377 ft | 134 kts | 345° |
| 2026-05-09 10:33 | 56.06263 | 11.94199 | 1370 ft | 133 kts | 345° |
| 2026-05-09 10:34 | 56.07127 | 11.93706 | 1372 ft | 132 kts | 345° |
| 2026-05-09 10:34 | 56.08885 | 11.92701 | 1374 ft | 133 kts | 344° |
| 2026-05-09 10:34 | 56.09760 | 11.92200 | 1372 ft | 132 kts | 344° |
| 2026-05-09 10:35 | 56.10632 | 11.91709 | 1368 ft | 131 kts | 345° |
| 2026-05-09 10:35 | 56.11503 | 11.91219 | 1376 ft | 132 kts | 344° |
| 2026-05-09 10:35 | 56.12378 | 11.90722 | 1377 ft | 132 kts | 344° |
| 2026-05-09 10:35 | 56.13253 | 11.90220 | 1372 ft | 132 kts | 344° |
| 2026-05-09 10:36 | 56.14130 | 11.89718 | 1371 ft | 132 kts | 344° |
| 2026-05-09 10:36 | 56.15004 | 11.89217 | 1375 ft | 132 kts | 345° |
| 2026-05-09 10:36 | 56.15867 | 11.88718 | 1377 ft | 132 kts | 344° |
| 2026-05-09 10:36 | 56.16739 | 11.88183 | 1373 ft | 132 kts | 343° |
| 2026-05-09 10:37 | 56.17605 | 11.87644 | 1369 ft | 131 kts | 342° |
| 2026-05-09 10:37 | 56.18476 | 11.87104 | 1382 ft | 133 kts | 342° |
| 2026-05-09 10:37 | 56.19353 | 11.86554 | 1377 ft | 134 kts | 343° |
| 2026-05-09 10:37 | 56.20229 | 11.85991 | 1366 ft | 133 kts | 342° |
| 2026-05-09 10:38 | 56.21096 | 11.85430 | 1365 ft | 132 kts | 342° |
| 2026-05-09 10:38 | 56.21957 | 11.84884 | 1373 ft | 130 kts | 342° |
| 2026-05-09 10:38 | 56.22813 | 11.84340 | 1369 ft | 130 kts | 342° |
| 2026-05-09 10:38 | 56.23655 | 11.83804 | 1374 ft | 130 kts | 342° |
| 2026-05-09 10:39 | 56.24510 | 11.83255 | 1374 ft | 131 kts | 342° |
| 2026-05-09 10:39 | 56.25363 | 11.82708 | 1372 ft | 130 kts | 342° |
| 2026-05-09 10:39 | 56.26215 | 11.82158 | 1374 ft | 130 kts | 342° |
| 2026-05-09 10:39 | 56.27066 | 11.81609 | 1375 ft | 130 kts | 342° |
| 2026-05-09 10:40 | 56.27918 | 11.81060 | 1369 ft | 130 kts | 342° |
| 2026-05-09 10:40 | 56.28768 | 11.80511 | 1379 ft | 130 kts | 342° |
| 2026-05-09 10:40 | 56.29640 | 11.79948 | 1380 ft | 136 kts | 342° |
| 2026-05-09 10:40 | 56.30531 | 11.79376 | 1381 ft | 137 kts | 342° |
| 2026-05-09 10:41 | 56.31435 | 11.78799 | 1376 ft | 138 kts | 342° |
| 2026-05-09 10:41 | 56.32344 | 11.78224 | 1366 ft | 138 kts | 342° |
| 2026-05-09 10:41 | 56.33251 | 11.77644 | 1368 ft | 138 kts | 342° |
| 2026-05-09 10:41 | 56.34160 | 11.77062 | 1374 ft | 139 kts | 342° |
| 2026-05-09 10:42 | 56.35068 | 11.76480 | 1380 ft | 139 kts | 342° |
| 2026-05-09 10:42 | 56.35980 | 11.75897 | 1379 ft | 139 kts | 342° |
| 2026-05-09 10:42 | 56.36895 | 11.75317 | 1378 ft | 139 kts | 342° |
| 2026-05-09 10:42 | 56.37810 | 11.74744 | 1375 ft | 139 kts | 342° |
| 2026-05-09 10:43 | 56.38726 | 11.74174 | 1375 ft | 139 kts | 342° |
| 2026-05-09 10:43 | 56.39642 | 11.73599 | 1375 ft | 140 kts | 342° |
| 2026-05-09 10:43 | 56.40550 | 11.73030 | 1375 ft | 140 kts | 342° |
| 2026-05-09 10:43 | 56.41471 | 11.72458 | 1376 ft | 140 kts | 342° |
| 2026-05-09 10:44 | 56.42394 | 11.71885 | 1378 ft | 140 kts | 342° |
| 2026-05-09 10:44 | 56.43314 | 11.71312 | 1379 ft | 140 kts | 342° |
| 2026-05-09 10:44 | 56.44232 | 11.70733 | 1378 ft | 140 kts | 342° |
| 2026-05-09 10:44 | 56.45147 | 11.70156 | 1367 ft | 139 kts | 342° |
| 2026-05-09 10:45 | 56.46062 | 11.69583 | 1367 ft | 139 kts | 342° |
| 2026-05-09 10:46 | 56.49738 | 11.67266 | 1378 ft | 141 kts | 342° |
| 2026-05-09 10:46 | 56.50670 | 11.66690 | 1381 ft | 142 kts | 342° |
| 2026-05-09 10:46 | 56.51601 | 11.66100 | 1379 ft | 141 kts | 342° |
| 2026-05-09 10:46 | 56.52531 | 11.65506 | 1385 ft | 142 kts | 342° |
| 2026-05-09 10:47 | 56.53472 | 11.64914 | 1377 ft | 143 kts | 342° |
| 2026-05-09 10:47 | 56.54093 | 11.64526 | 1367 ft | 142 kts | 342° |
| 2026-05-09 10:47 | 56.55325 | 11.63767 | 1374 ft | 141 kts | 342° |
| 2026-05-09 10:47 | 56.56256 | 11.63192 | 1378 ft | 142 kts | 342° |
| 2026-05-09 10:48 | 56.57190 | 11.62606 | 1380 ft | 142 kts | 342° |
| 2026-05-09 10:48 | 56.58124 | 11.62022 | 1369 ft | 141 kts | 342° |
| 2026-05-09 10:48 | 56.58752 | 11.61635 | 1374 ft | 141 kts | 342° |
| 2026-05-09 10:48 | 56.59678 | 11.61071 | 1369 ft | 140 kts | 342° |
| 2026-05-09 10:49 | 56.60588 | 11.60518 | 1372 ft | 140 kts | 342° |
| 2026-05-09 10:49 | 56.61516 | 11.59957 | 1377 ft | 141 kts | 343° |
| 2026-05-09 10:49 | 56.62456 | 11.59376 | 1374 ft | 141 kts | 342° |
| 2026-05-09 10:49 | 56.63374 | 11.58802 | 1384 ft | 142 kts | 342° |
| 2026-05-09 10:50 | 56.64303 | 11.58221 | 1370 ft | 141 kts | 342° |
| 2026-05-09 10:50 | 56.65225 | 11.57643 | 1378 ft | 138 kts | 342° |
| 2026-05-09 10:50 | 56.66086 | 11.57143 | 1248 ft | 119 kts | 346° |
| 2026-05-09 10:50 | 56.66827 | 11.56773 | 1124 ft | 102 kts | 348° |
| 2026-05-09 10:51 | 56.67487 | 11.56488 | 905 ft | 94 kts | 352° |
| 2026-05-09 10:51 | 56.68103 | 11.56280 | 713 ft | 89 kts | 349° |
| 2026-05-09 10:51 | 56.68685 | 11.56040 | 652 ft | 81 kts | 353° |
| 2026-05-09 10:51 | 56.69243 | 11.55906 | 647 ft | 87 kts | 1° |
| 2026-05-09 10:52 | 56.69910 | 11.55852 | 616 ft | 96 kts | 0° |
| 2026-05-09 10:52 | 56.70470 | 11.55406 | 680 ft | 87 kts | 314° |
| 2026-05-09 10:52 | 56.70674 | 11.54450 | 673 ft | 81 kts | 266° |
| 2026-05-09 10:52 | 56.70477 | 11.53531 | 708 ft | 78 kts | 214° |
| 2026-05-09 10:53 | 56.69972 | 11.53261 | 772 ft | 79 kts | 185° |
| 2026-05-09 10:53 | 56.69412 | 11.53027 | 736 ft | 84 kts | 192° |
| 2026-05-09 10:53 | 56.68935 | 11.53038 | 729 ft | 58 kts | 148° |
| 2026-05-09 10:53 | 56.68742 | 11.53688 | 610 ft | 65 kts | 106° |
| 2026-05-09 10:54 | 56.68867 | 11.54409 | 452 ft | 63 kts | 59° |
| 2026-05-09 10:54 | 56.69162 | 11.54990 | 282 ft | 65 kts | 34° |
| 2026-05-09 10:54 | 56.69569 | 11.55334 | 44 ft | 61 kts | 32° |
| 2026-05-09 10:54 | 56.69855 | 11.55582 | 27 ft | 22 kts | 25° |
| 2026-05-09 10:55 | 56.69936 | 11.55655 | 25 ft | 9 kts | 26° |
| 2026-05-09 10:55 | 56.69977 | 11.55629 | 27 ft | 9 kts | 291° |
| 2026-05-09 10:55 | 56.69986 | 11.55574 | 28 ft | 0 kts | 292° |